Time;durP1;ratioP1;P1;durP2;ratioP2;P2;SDS_P1;SDS_P2;PMS_P1;PMS_P2;Temp;Humidity;BMP_temperature;BMP_pressure;BME280_temperature;BME280_humidity;BME280_pressure;Samples;Min_cycle;Max_cycle;Signal;HPM_P1;HPM_P2
2021/10/15 00:02:05;;;;;;;4.05;2.13;;;;;;;7.13;60.43;94002.00;5013079;28;20041;-72
2021/10/15 00:04:30;;;;;;;3.28;2.58;;;;;;;7.13;60.79;94002.00;5007406;28;20101;-72
2021/10/15 00:06:56;;;;;;;5.25;2.83;;;;;;;7.09;60.94;94001.00;5002793;28;20096;-72
2021/10/15 00:09:21;;;;;;;4.55;2.80;;;;;;;7.05;60.73;93989.38;5009968;28;20037;-72
2021/10/15 00:11:46;;;;;;;2.92;1.55;;;;;;;6.92;61.30;93998.03;5007458;28;20408;-72
2021/10/15 00:14:13;;;;;;;4.47;2.50;;;;;;;6.88;61.81;93994.41;5009609;28;20042;-73
2021/10/15 00:16:38;;;;;;;6.22;3.58;;;;;;;6.53;62.24;93961.28;5015588;28;20037;-72
2021/10/15 00:19:06;;;;;;;6.47;3.47;;;;;;;6.29;63.95;93979.81;5009949;28;20052;-73
2021/10/15 00:21:32;;;;;;;7.32;4.15;;;;;;;6.36;64.56;93988.19;5015452;28;20468;-72
2021/10/15 00:23:57;;;;;;;9.35;3.55;;;;;;;6.45;64.42;93980.41;5013541;28;20040;-72
2021/10/15 00:26:23;;;;;;;5.13;2.05;;;;;;;6.65;63.46;93991.50;5002097;28;20542;-72
2021/10/15 00:28:48;;;;;;;6.05;2.95;;;;;;;6.63;62.98;93967.22;5004049;28;20033;-72
2021/10/15 00:31:13;;;;;;;3.75;2.58;;;;;;;6.96;62.24;93997.19;5011523;28;20471;-72
2021/10/15 00:33:39;;;;;;;6.25;3.50;;;;;;;6.96;62.27;93996.41;5005761;28;20044;-72
2021/10/15 00:36:04;;;;;;;2.78;1.95;;;;;;;6.86;62.33;93992.81;5007839;28;20034;-73
2021/10/15 00:38:30;;;;;;;4.80;2.67;;;;;;;6.81;62.43;93978.88;5008963;28;20111;-72
2021/10/15 00:40:55;;;;;;;2.50;1.60;;;;;;;7.02;61.58;93968.81;5007647;28;20377;-72
2021/10/15 00:43:21;;;;;;;3.60;1.58;;;;;;;7.20;61.23;93982.03;5014988;28;20480;-72
2021/10/15 00:45:46;;;;;;;3.75;1.90;;;;;;;7.11;61.13;93975.03;5013755;28;20427;-72
2021/10/15 00:48:12;;;;;;;4.80;2.63;;;;;;;7.01;61.87;93978.59;5010979;28;20049;-72
2021/10/15 00:50:37;;;;;;;5.32;2.65;;;;;;;6.92;62.06;93953.09;5008873;28;20045;-73
2021/10/15 00:53:03;;;;;;;3.30;1.55;;;;;;;7.27;61.54;93971.09;5006773;28;20583;-72
2021/10/15 00:55:30;;;;;;;1.30;1.20;;;;;;;6.96;61.80;93944.31;5014328;28;20488;-72
2021/10/15 00:57:55;;;;;;;2.90;1.80;;;;;;;7.00;62.00;93955.09;5016856;28;20313;-72
2021/10/15 01:00:20;;;;;;;3.38;1.73;;;;;;;6.92;62.51;93968.97;5012254;28;20044;-72
2021/10/15 01:02:46;;;;;;;2.92;1.73;;;;;;;6.99;62.66;93964.13;5016197;28;20594;-72
2021/10/15 01:05:13;;;;;;;3.80;1.40;;;;;;;7.18;62.17;93970.19;5007853;28;20408;-72
2021/10/15 01:07:38;;;;;;;1.90;1.40;;;;;;;7.29;61.69;93963.63;5017798;28;20025;-72
2021/10/15 01:10:05;;;;;;;1.33;1.10;;;;;;;7.28;61.22;93946.22;5005377;28;20105;-72
2021/10/15 01:12:31;;;;;;;2.25;1.33;;;;;;;7.18;61.67;93952.44;5015660;28;20149;-73
2021/10/15 01:14:56;;;;;;;2.15;1.25;;;;;;;7.26;61.38;93943.06;5003722;28;20045;-72
2021/10/15 01:17:22;;;;;;;3.03;1.70;;;;;;;7.17;61.57;93944.78;5014909;28;20038;-72
2021/10/15 01:19:54;;;;;;;3.08;1.83;;;;;;;7.45;60.96;93941.16;5010074;28;20503;-72
2021/10/15 01:22:24;;;;;;;1.90;1.30;;;;;;;7.44;60.89;93944.88;5005712;28;20244;-73
2021/10/15 01:24:50;;;;;;;2.22;1.23;;;;;;;7.35;61.12;93946.63;5010379;28;20128;-73
2021/10/15 01:27:16;;;;;;;1.58;1.40;;;;;;;7.45;60.90;93930.56;5011813;28;20071;-72
2021/10/15 01:29:43;;;;;;;1.40;1.30;;;;;;;7.44;60.97;93938.78;5009445;28;20395;-74
2021/10/15 01:32:10;;;;;;;1.23;1.08;;;;;;;7.52;60.36;93930.22;5016437;28;20048;-72
2021/10/15 01:34:36;;;;;;;1.38;1.10;;;;;;;7.41;60.33;93916.34;5009615;28;20443;-73
2021/10/15 01:37:03;;;;;;;1.52;1.30;;;;;;;7.58;60.08;93937.75;5002585;28;20127;-72
2021/10/15 01:39:28;;;;;;;2.55;1.45;;;;;;;7.53;60.13;93934.44;5009521;28;20118;-72
2021/10/15 01:41:53;;;;;;;4.15;2.30;;;;;;;7.30;60.24;93913.09;5005746;28;20479;-72
2021/10/15 01:44:21;;;;;;;2.90;2.10;;;;;;;7.39;60.42;93937.03;5006263;28;20049;-73
2021/10/15 01:46:47;;;;;;;2.47;2.08;;;;;;;7.51;60.43;93932.06;5016956;28;20048;-72
2021/10/15 01:49:13;;;;;;;3.50;1.70;;;;;;;7.36;60.83;93928.88;5006498;28;20053;-74
2021/10/15 01:51:39;;;;;;;2.15;1.40;;;;;;;7.29;60.91;93913.38;5009201;28;20174;-72
2021/10/15 01:54:06;;;;;;;1.60;1.40;;;;;;;7.52;60.37;93931.00;5004130;28;20188;-73
2021/10/15 01:56:33;;;;;;;2.08;1.40;;;;;;;7.68;60.01;93937.59;5013672;28;20047;-72
2021/10/15 01:58:59;;;;;;;2.28;1.65;;;;;;;7.76;59.53;93930.88;5016790;28;20148;-72
2021/10/15 02:01:25;;;;;;;1.95;1.20;;;;;;;7.58;59.44;93913.19;5004084;28;20032;-72
2021/10/15 02:03:51;;;;;;;3.55;1.67;;;;;;;7.79;59.53;93929.50;5011931;28;20867;-72
2021/10/15 02:06:16;;;;;;;1.77;1.30;;;;;;;7.71;59.42;93928.28;5007536;28;20052;-72
2021/10/15 02:08:42;;;;;;;1.55;1.42;;;;;;;7.73;59.03;93924.28;5007591;28;20053;-72
2021/10/15 02:11:07;;;;;;;1.15;1.05;;;;;;;7.71;59.07;93913.19;5011944;28;20048;-72
2021/10/15 02:13:37;;;;;;;1.35;1.20;;;;;;;7.75;59.14;93924.00;5000768;28;20029;-74
2021/10/15 02:16:02;;;;;;;1.50;1.25;;;;;;;7.84;59.10;93926.75;5012798;28;20618;-72
2021/10/15 02:18:28;;;;;;;1.65;1.33;;;;;;;7.50;58.70;93856.41;5004632;28;20075;-74
2021/10/15 02:20:53;;;;;;;1.30;1.17;;;;;;;7.73;58.50;93900.47;5008246;28;20057;-72
2021/10/15 02:23:19;;;;;;;1.33;1.17;;;;;;;7.71;58.60;93893.88;5011464;28;20444;-72
2021/10/15 02:25:44;;;;;;;1.50;1.10;;;;;;;7.87;58.70;93921.69;5009155;28;20448;-72
2021/10/15 02:28:10;;;;;;;1.83;1.13;;;;;;;7.80;58.45;93912.53;5018012;28;20029;-72
2021/10/15 02:30:36;;;;;;;1.77;1.20;;;;;;;7.83;58.38;93915.38;5010935;28;20551;-73
2021/10/15 02:33:02;;;;;;;0.90;0.90;;;;;;;7.64;58.81;93907.47;5006869;28;20483;-72
2021/10/15 02:35:27;;;;;;;2.72;1.52;;;;;;;7.70;58.69;93908.19;5012327;28;20427;-72
2021/10/15 02:37:53;;;;;;;1.30;1.23;;;;;;;7.86;58.22;93912.16;5004865;28;20026;-72
2021/10/15 02:40:18;;;;;;;0.82;0.82;;;;;;;7.61;58.85;93904.63;5009662;28;20036;-72
2021/10/15 02:42:46;;;;;;;1.75;1.30;;;;;;;7.62;58.98;93906.22;5007155;28;20044;-74
2021/10/15 02:45:11;;;;;;;1.20;0.90;;;;;;;7.44;59.15;93902.53;5004628;28;20171;-72
2021/10/15 02:47:37;;;;;;;1.27;1.17;;;;;;;7.43;58.93;93874.53;5006128;28;20490;-73
2021/10/15 02:50:03;;;;;;;0.98;0.90;;;;;;;7.59;59.01;93904.91;4994826;28;20472;-72
2021/10/15 02:52:28;;;;;;;1.10;1.00;;;;;;;7.65;58.83;93911.69;5004569;28;20061;-72
2021/10/15 02:54:54;;;;;;;2.40;0.82;;;;;;;7.58;58.97;93903.34;5008561;28;20515;-72
2021/10/15 02:57:19;;;;;;;0.93;0.90;;;;;;;7.27;59.46;93883.78;5011117;28;20544;-72
2021/10/15 02:59:44;;;;;;;1.45;0.88;;;;;;;7.31;60.01;93898.00;5005934;28;20038;-72
2021/10/15 03:02:10;;;;;;;0.80;0.80;;;;;;;7.35;60.02;93891.06;5015230;28;20048;-72
2021/10/15 03:04:40;;;;;;;0.95;0.90;;;;;;;7.22;60.05;93889.94;5012443;28;20029;-74
2021/10/15 03:07:06;;;;;;;0.98;0.98;;;;;;;7.10;60.71;93897.53;5003021;28;20533;-71
2021/10/15 03:09:31;;;;;;;2.63;1.15;;;;;;;6.91;61.33;93880.13;5003441;28;20046;-72
2021/10/15 03:11:56;;;;;;;0.95;0.95;;;;;;;6.89;62.19;93890.22;5008279;28;20045;-71
2021/10/15 03:14:22;;;;;;;1.58;1.38;;;;;;;6.73;62.61;93866.66;5009436;28;20717;-72
2021/10/15 03:16:48;;;;;;;2.13;1.40;;;;;;;6.77;63.13;93894.09;5010902;28;20417;-71
2021/10/15 03:19:13;;;;;;;3.60;1.73;;;;;;;6.75;63.68;93890.94;5003132;28;20031;-71
2021/10/15 03:21:39;;;;;;;2.10;1.52;;;;;;;6.70;63.82;93883.06;5013932;28;20119;-71
2021/10/15 03:24:05;;;;;;;2.63;1.50;;;;;;;6.62;64.47;93867.88;5013289;28;20033;-72
2021/10/15 03:26:31;;;;;;;3.92;1.83;;;;;;;6.57;64.28;93853.94;5011423;28;20044;-71
2021/10/15 03:28:56;;;;;;;2.80;1.77;;;;;;;6.64;64.93;93876.31;5008802;28;20033;-71
2021/10/15 03:31:21;;;;;;;2.22;1.77;;;;;;;6.54;64.95;93879.09;5011643;28;20065;-71
2021/10/15 03:33:47;;;;;;;1.40;1.30;;;;;;;6.31;66.10;93877.31;4998704;28;20468;-71
2021/10/15 03:36:12;;;;;;;2.28;1.90;;;;;;;6.30;66.26;93867.81;5012393;28;20083;-72
2021/10/15 03:38:37;;;;;;;1.75;1.65;;;;;;;6.48;66.10;93863.59;5008150;28;20122;-72
2021/10/15 03:41:03;;;;;;;2.45;1.88;;;;;;;6.42;66.45;93863.66;5012342;28;20037;-72
2021/10/15 03:43:28;;;;;;;1.85;1.73;;;;;;;6.51;66.15;93863.00;5011470;28;20399;-72
2021/10/15 03:45:54;;;;;;;2.38;1.75;;;;;;;6.44;66.22;93847.53;5001142;28;20364;-72
2021/10/15 03:48:23;;;;;;;1.77;1.48;;;;;;;6.37;66.75;93855.00;5005405;28;20042;-73
2021/10/15 03:50:48;;;;;;;1.67;1.35;;;;;;;6.22;66.87;93823.53;5005358;28;20087;-71
2021/10/15 03:53:14;;;;;;;1.65;1.17;;;;;;;6.52;66.62;93852.16;5004641;28;20580;-72
2021/10/15 03:55:39;;;;;;;1.10;0.90;;;;;;;6.20;66.51;93821.19;5013289;28;20602;-71
2021/10/15 03:58:05;;;;;;;0.70;0.70;;;;;;;6.42;66.34;93842.53;5015779;28;20026;-72
2021/10/15 04:00:30;;;;;;;0.85;0.85;;;;;;;6.05;66.58;93815.28;5001051;28;21602;-72
2021/10/15 04:02:56;;;;;;;1.40;0.80;;;;;;;6.50;66.12;93846.41;5011178;28;20060;-71
2021/10/15 04:05:21;;;;;;;2.03;0.90;;;;;;;6.23;66.78;93825.88;5007340;28;20033;-71
2021/10/15 04:07:46;;;;;;;2.78;0.75;;;;;;;6.60;65.74;93851.53;5016497;28;20599;-71
2021/10/15 04:10:12;;;;;;;1.05;0.80;;;;;;;6.74;64.89;93828.59;5003401;28;20109;-72
2021/10/15 04:12:37;;;;;;;0.80;0.77;;;;;;;6.96;64.42;93848.31;5010476;28;20152;-71
2021/10/15 04:15:04;;;;;;;0.65;0.65;;;;;;;7.02;63.99;93844.53;5010427;28;20038;-72
2021/10/15 04:17:29;;;;;;;1.10;0.70;;;;;;;7.12;63.62;93849.66;5014029;28;20037;-72
2021/10/15 04:19:55;;;;;;;0.70;0.70;;;;;;;7.02;62.95;93828.66;5013783;28;20033;-72
2021/10/15 04:22:20;;;;;;;0.57;0.57;;;;;;;6.96;63.27;93838.53;5017658;28;20053;-72
2021/10/15 04:24:46;;;;;;;0.70;0.70;;;;;;;7.08;62.66;93840.75;5009429;28;20152;-72
2021/10/15 04:27:11;;;;;;;0.77;0.60;;;;;;;7.00;62.88;93842.16;5012947;28;20041;-72
2021/10/15 04:29:37;;;;;;;0.88;0.70;;;;;;;6.55;63.99;93843.69;5008873;28;20064;-73
2021/10/15 04:32:02;;;;;;;2.05;1.02;;;;;;;6.35;64.86;93831.53;5012162;28;20037;-72
2021/10/15 04:34:28;;;;;;;1.20;1.10;;;;;;;6.56;65.25;93853.16;5011573;28;20317;-73
2021/10/15 04:36:53;;;;;;;1.20;0.80;;;;;;;6.57;64.75;93835.44;5013126;28;21071;-72
2021/10/15 04:39:19;;;;;;;0.80;0.80;;;;;;;6.48;65.45;93853.03;5016290;28;20463;-72
2021/10/15 04:41:45;;;;;;;0.98;0.88;;;;;;;6.38;66.67;93835.47;5013667;28;20033;-72
2021/10/15 04:44:10;;;;;;;0.80;0.80;;;;;;;6.56;68.28;93825.94;5016657;28;20123;-72
2021/10/15 04:46:36;;;;;;;0.93;0.93;;;;;;;6.65;66.45;93856.72;5015329;28;20127;-73
2021/10/15 04:49:02;;;;;;;0.80;0.80;;;;;;;6.62;65.96;93854.66;5013383;28;20231;-72
2021/10/15 04:51:28;;;;;;;0.98;0.80;;;;;;;6.59;65.96;93860.53;5008760;28;20271;-73
2021/10/15 04:53:53;;;;;;;1.20;0.90;;;;;;;6.69;65.72;93855.09;5009329;28;20045;-73
2021/10/15 04:56:18;;;;;;;0.80;0.80;;;;;;;6.61;66.07;93861.00;5009846;28;20037;-73
2021/10/15 04:58:44;;;;;;;0.90;0.85;;;;;;;6.69;65.40;93833.16;5013234;28;20025;-72
2021/10/15 05:01:09;;;;;;;0.70;0.70;;;;;;;6.88;64.94;93856.94;5014719;28;20103;-71
2021/10/15 05:03:35;;;;;;;0.88;0.88;;;;;;;6.93;64.90;93841.78;5016633;28;20044;-71
2021/10/15 05:06:00;;;;;;;0.80;0.80;;;;;;;7.15;64.32;93863.06;5013333;28;20041;-72
2021/10/15 05:08:32;;;;;;;1.25;0.88;;;;;;;7.20;64.01;93867.50;5003382;28;20151;-71
2021/10/15 05:10:58;;;;;;;1.52;1.17;;;;;;;7.15;64.00;93867.56;5003142;28;20037;-71
2021/10/15 05:13:24;;;;;;;0.98;0.90;;;;;;;6.86;64.45;93850.06;5008877;28;20450;-71
2021/10/15 05:15:49;;;;;;;0.90;0.90;;;;;;;7.03;64.40;93864.63;5015490;28;20642;-71
2021/10/15 05:18:15;;;;;;;2.53;1.30;;;;;;;7.21;63.76;93866.44;5013543;28;20033;-73
2021/10/15 05:20:42;;;;;;;1.83;1.23;;;;;;;6.86;65.08;93852.72;5006656;28;20049;-73
2021/10/15 05:23:07;;;;;;;1.38;1.13;;;;;;;6.95;65.17;93873.19;5015388;28;20037;-72
2021/10/15 05:25:34;;;;;;;1.48;1.38;;;;;;;6.88;65.79;93870.94;5007277;28;20534;-73
2021/10/15 05:27:59;;;;;;;2.63;1.30;;;;;;;7.15;64.84;93867.56;5012347;28;20542;-72
2021/10/15 05:30:26;;;;;;;1.38;0.93;;;;;;;7.11;64.46;93842.78;5007249;28;20033;-72
2021/10/15 05:32:52;;;;;;;1.20;1.10;;;;;;;6.82;64.30;93800.69;5008414;28;20029;-71
2021/10/15 05:35:17;;;;;;;1.02;0.80;;;;;;;7.16;64.61;93855.94;5014067;28;20052;-71
2021/10/15 05:37:43;;;;;;;1.23;1.00;;;;;;;7.22;64.40;93852.13;5008972;28;20033;-71
2021/10/15 05:40:09;;;;;;;1.77;1.27;;;;;;;7.21;64.49;93839.97;5013793;28;20494;-71
2021/10/15 05:42:45;;;;;;;1.67;1.00;;;;;;;7.35;64.24;93856.66;5011630;28;20041;-73
2021/10/15 05:45:10;;;;;;;1.15;1.10;;;;;;;7.08;64.43;93857.41;5014200;28;20039;-71
2021/10/15 05:47:36;;;;;;;1.42;1.30;;;;;;;7.09;65.61;93864.22;5010188;28;20312;-73
2021/10/15 05:50:01;;;;;;;3.35;1.70;;;;;;;7.01;64.99;93848.25;5011349;28;20159;-71
2021/10/15 05:52:32;;;;;;;2.55;1.30;;;;;;;7.12;65.42;93863.66;5013757;28;20492;-71
2021/10/15 06:00:06;;;;;;;1.77;0.80;;;;;;;7.00;66.12;93846.66;5008519;28;20041;-73
2021/10/15 06:02:34;;;;;;;1.58;1.20;;;;;;;7.03;65.76;93846.09;5016212;28;20396;-71
2021/10/15 06:15:44;;;;;;;1.15;0.90;;;;;;;7.07;66.88;93844.44;5006523;28;20049;-70
2021/10/15 06:18:15;;;;;;;3.00;0.82;;;;;;;6.92;66.70;93842.06;5007312;28;20470;-71
2021/10/15 06:20:41;;;;;;;1.60;1.08;;;;;;;6.94;66.55;93818.75;5009440;28;20590;-71
2021/10/15 06:23:06;;;;;;;1.58;1.23;;;;;;;6.95;66.98;93847.53;5016854;28;20049;-71
2021/10/15 06:25:32;;;;;;;2.97;1.90;;;;;;;7.15;66.71;93841.91;5004237;28;20398;-72
2021/10/15 06:28:01;;;;;;;3.67;2.40;;;;;;;7.22;66.05;93846.84;5013115;28;20041;-72
2021/10/15 06:30:31;;;;;;;3.58;2.17;;;;;;;7.25;66.68;93847.03;5007659;28;20068;-71
2021/10/15 06:32:57;;;;;;;3.72;1.75;;;;;;;7.42;65.90;93843.84;5013884;28;20045;-72
2021/10/15 06:35:23;;;;;;;2.05;1.70;;;;;;;7.40;65.82;93843.34;5005766;28;20412;-71
2021/10/15 06:37:49;;;;;;;2.28;1.58;;;;;;;6.86;66.99;93828.91;5012911;28;20033;-72
2021/10/15 06:40:15;;;;;;;3.38;1.75;;;;;;;6.94;67.56;93845.19;5004573;28;20465;-71
2021/10/15 06:42:40;;;;;;;1.90;1.42;;;;;;;6.75;68.20;93848.63;5008564;28;20044;-72
2021/10/15 06:45:06;;;;;;;1.55;1.45;;;;;;;6.80;68.28;93845.91;5011406;28;20140;-71
2021/10/15 06:47:32;;;;;;;2.08;1.30;;;;;;;6.89;68.03;93832.84;5007608;28;20041;-72
2021/10/15 06:49:57;;;;;;;1.40;1.30;;;;;;;7.15;67.17;93849.84;5011204;28;20049;-71
2021/10/15 06:52:23;;;;;;;1.98;1.67;;;;;;;6.98;67.72;93846.19;5012742;28;20033;-73
2021/10/15 06:54:49;;;;;;;3.55;1.50;;;;;;;7.09;67.47;93847.59;5010914;28;21152;-71
2021/10/15 06:57:19;;;;;;;1.70;1.58;;;;;;;7.16;66.87;93845.34;5016692;28;20138;-72
2021/10/15 06:59:44;;;;;;;1.55;1.33;;;;;;;7.26;66.63;93855.75;5012750;28;20044;-72
2021/10/15 07:02:10;;;;;;;4.85;1.73;;;;;;;7.26;66.52;93847.81;5009478;28;20048;-72
2021/10/15 07:04:36;;;;;;;1.33;1.10;;;;;;;6.94;67.12;93843.34;5004332;28;20037;-73
2021/10/15 07:07:03;;;;;;;3.13;1.48;;;;;;;6.96;66.93;93827.16;5012518;28;20409;-71
2021/10/15 07:09:28;;;;;;;7.57;1.50;;;;;;;6.73;68.44;93834.94;5003907;28;20136;-71
2021/10/15 07:11:54;;;;;;;2.65;2.03;;;;;;;6.93;68.15;93833.06;5005419;28;20044;-73
2021/10/15 07:14:19;;;;;;;3.35;1.75;;;;;;;7.06;67.31;93830.44;5011891;28;20059;-72
2021/10/15 07:16:45;;;;;;;1.80;1.25;;;;;;;7.13;67.52;93832.72;5007093;28;20488;-71
2021/10/15 07:19:11;;;;;;;2.33;1.48;;;;;;;7.15;67.30;93841.13;5012185;28;20025;-71
2021/10/15 07:21:37;;;;;;;2.47;1.88;;;;;;;6.75;67.44;93801.06;5012011;28;20053;-73
2021/10/15 07:24:03;;;;;;;2.70;1.95;;;;;;;7.10;67.59;93843.84;5007125;28;20057;-72
2021/10/15 07:26:28;;;;;;;2.88;2.00;;;;;;;6.82;68.11;93838.50;5006836;28;20680;-71
2021/10/15 07:28:53;;;;;;;3.90;2.40;;;;;;;6.57;69.44;93822.22;5007526;28;20570;-72
2021/10/15 07:31:19;;;;;;;3.10;2.28;;;;;;;6.30;70.26;93828.19;5009594;28;20537;-71
2021/10/15 07:33:45;;;;;;;1.77;1.48;;;;;;;6.13;70.92;93817.28;5010433;28;20041;-72
2021/10/15 07:36:10;;;;;;;2.72;1.92;;;;;;;6.06;71.84;93824.78;5014382;28;20593;-72
2021/10/15 07:38:37;;;;;;;3.10;1.92;;;;;;;5.89;71.81;93775.09;5008698;28;20500;-73
2021/10/15 07:41:03;;;;;;;2.60;1.83;;;;;;;6.14;72.51;93826.78;5011679;28;20037;-71
2021/10/15 07:43:29;;;;;;;2.00;1.80;;;;;;;6.33;71.72;93824.97;5012084;28;20030;-72
2021/10/15 07:45:54;;;;;;;2.47;2.25;;;;;;;6.19;71.81;93818.81;5013169;28;20677;-71
2021/10/15 07:48:20;;;;;;;2.53;1.95;;;;;;;6.02;72.82;93819.25;5009281;28;20047;-72
2021/10/15 07:50:45;;;;;;;3.13;1.75;;;;;;;5.88;73.98;93813.13;5008099;28;20077;-71
2021/10/15 07:53:10;;;;;;;3.13;2.00;;;;;;;5.87;73.83;93803.66;5013350;28;20041;-73
2021/10/15 07:55:36;;;;;;;2.35;1.92;;;;;;;5.64;74.93;93797.31;5009634;28;20060;-74
2021/10/15 07:58:01;;;;;;;6.38;2.08;;;;;;;5.62;74.62;93786.28;5010804;28;20033;-72
2021/10/15 08:00:27;;;;;;;3.80;1.42;;;;;;;5.58;75.49;93795.78;5012337;28;20045;-72
2021/10/15 08:02:53;;;;;;;2.22;1.63;;;;;;;5.76;75.58;93810.13;5016431;28;20415;-72
2021/10/15 08:05:19;;;;;;;1.55;1.27;;;;;;;5.66;75.98;93810.22;4999990;28;20467;-72
2021/10/15 08:07:45;;;;;;;2.70;1.60;;;;;;;5.71;75.31;93802.25;5010627;28;20033;-72
2021/10/15 08:10:10;;;;;;;1.63;1.45;;;;;;;5.72;75.90;93809.91;5004488;28;20387;-72
2021/10/15 08:12:37;;;;;;;2.25;1.30;;;;;;;5.61;76.15;93819.00;5008412;28;20615;-73
2021/10/15 08:15:07;;;;;;;3.60;2.08;;;;;;;5.83;75.95;93827.16;5010970;28;20038;-72
2021/10/15 08:17:33;;;;;;;7.15;3.17;;;;;;;5.80;75.82;93822.47;5005158;28;20042;-73
2021/10/15 08:19:58;;;;;;;2.78;1.80;;;;;;;5.91;75.77;93817.84;5008826;28;20142;-73
2021/10/15 08:22:23;;;;;;;2.25;1.77;;;;;;;5.81;75.72;93824.03;5013376;28;20057;-73
2021/10/15 08:24:49;;;;;;;2.90;2.15;;;;;;;5.67;76.21;93823.16;5007400;28;20847;-73
2021/10/15 08:27:14;;;;;;;4.35;2.10;;;;;;;6.02;75.38;93826.44;5010816;28;20041;-74
2021/10/15 08:29:40;;;;;;;2.95;1.75;;;;;;;6.27;74.30;93818.16;5004122;28;20103;-72
2021/10/15 08:32:08;;;;;;;2.88;2.30;;;;;;;6.38;73.81;93822.25;5009781;28;21110;-72
2021/10/15 08:34:33;;;;;;;3.65;1.67;;;;;;;6.46;73.12;93805.75;5007465;28;20592;-72
2021/10/15 08:36:59;;;;;;;2.25;1.85;;;;;;;6.55;72.95;93822.53;5011988;28;20037;-72
2021/10/15 08:39:27;;;;;;;2.28;1.95;;;;;;;6.51;72.40;93799.59;5001568;28;20117;-73
2021/10/15 08:41:53;;;;;;;2.83;2.15;;;;;;;6.52;72.51;93796.69;5011478;28;20041;-73
2021/10/15 08:44:19;;;;;;;2.63;2.00;;;;;;;6.76;71.66;93797.34;5006525;28;20064;-72
2021/10/15 08:46:45;;;;;;;4.38;2.50;;;;;;;6.83;71.38;93804.91;5012678;28;20033;-73
2021/10/15 08:49:11;;;;;;;3.22;2.00;;;;;;;6.61;71.57;93797.59;5008144;28;20036;-73
2021/10/15 08:51:39;;;;;;;2.10;1.70;;;;;;;6.71;71.69;93815.94;5010685;28;20037;-74
2021/10/15 08:54:05;;;;;;;3.30;1.98;;;;;;;6.46;72.74;93813.66;5011135;28;20481;-73
2021/10/15 08:56:34;;;;;;;2.72;1.70;;;;;;;6.38;72.70;93793.97;5017088;28;20045;-72
2021/10/15 08:59:04;;;;;;;2.05;1.40;;;;;;;6.53;72.86;93808.81;5011004;28;20033;-72
2021/10/15 09:01:48;;;;;;;4.82;1.85;;;;;;;6.62;72.85;93806.31;5014362;28;20157;-72
2021/10/15 09:04:18;;;;;;;2.38;1.65;;;;;;;6.99;71.79;93821.31;5017259;28;20436;-72
2021/10/15 09:06:44;;;;;;;1.92;1.60;;;;;;;7.10;70.61;93814.75;5012966;28;20049;-73
2021/10/15 09:09:10;;;;;;;3.22;1.40;;;;;;;6.86;71.17;93814.91;5011845;28;20041;-73
2021/10/15 09:11:41;;;;;;;1.73;1.33;;;;;;;6.92;70.70;93831.47;5009457;28;20033;-74
2021/10/15 09:14:19;;;;;;;2.58;1.63;;;;;;;7.14;70.38;93818.44;5011338;28;20412;-72
2021/10/15 09:17:10;;;;;;;5.32;1.50;;;;;;;7.11;70.04;93819.00;5014376;28;20104;-73
2021/10/15 09:19:41;;;;;;;1.92;1.73;;;;;;;7.18;70.20;93808.81;5011856;28;20567;-74
2021/10/15 09:22:09;;;;;;;5.47;2.63;;;;;;;7.02;70.62;93812.81;5014199;28;20064;-72
2021/10/15 09:24:36;;;;;;;3.33;1.88;;;;;;;7.05;71.06;93817.50;5012102;28;20069;-74
2021/10/15 09:27:25;;;;;;;3.92;2.15;;;;;;;7.41;70.14;93818.47;5006851;28;20110;-73
2021/10/15 09:29:58;;;;;;;3.78;1.80;;;;;;;7.69;69.32;93819.25;5012124;28;20041;-73
2021/10/15 09:32:26;;;;;;;1.40;1.30;;;;;;;7.59;68.78;93800.91;5015009;28;20037;-73
2021/10/15 09:34:53;;;;;;;3.05;2.28;;;;;;;7.27;69.61;93801.78;5002287;28;20156;-74
2021/10/15 09:37:22;;;;;;;3.50;2.58;;;;;;;7.38;69.56;93829.63;5011942;28;20164;-72
2021/10/15 09:39:49;;;;;;;2.15;1.77;;;;;;;7.32;69.26;93809.63;5009711;28;20480;-72
2021/10/15 09:42:20;;;;;;;5.32;2.90;;;;;;;7.37;69.29;93822.78;5004888;28;20527;-72
2021/10/15 09:44:46;;;;;;;3.08;1.98;;;;;;;7.45;68.83;93835.31;5002648;28;21209;-72
2021/10/15 09:47:26;;;;;;;3.35;2.42;;;;;;;7.36;68.83;93810.59;5009991;28;20049;-72
2021/10/15 09:50:06;;;;;;;4.15;3.20;;;;;;;7.33;69.68;93824.44;5006854;28;20057;-73
2021/10/15 09:52:34;;;;;;;3.40;2.83;;;;;;;7.33;69.69;93831.59;5014120;28;20041;-72
2021/10/15 09:55:06;;;;;;;4.10;2.30;;;;;;;7.24;69.71;93811.06;5011962;28;20037;-72
2021/10/15 09:57:34;;;;;;;4.85;2.50;;;;;;;7.66;69.01;93830.44;5008738;28;20041;-72
2021/10/15 10:00:00;;;;;;;3.78;2.42;;;;;;;7.69;68.26;93833.28;5015870;28;20120;-72
2021/10/15 10:02:27;;;;;;;7.75;3.92;;;;;;;7.78;68.06;93830.00;5007594;28;20061;-72
2021/10/15 10:04:55;;;;;;;8.18;3.53;;;;;;;7.63;68.86;93831.78;5009635;28;20030;-72
2021/10/15 10:07:20;;;;;;;5.55;2.90;;;;;;;7.98;67.86;93829.56;5009854;28;20032;-72
2021/10/15 10:09:46;;;;;;;6.20;4.00;;;;;;;8.17;67.08;93822.28;5014509;28;20519;-72
2021/10/15 10:12:12;;;;;;;7.30;3.40;;;;;;;8.08;66.45;93826.69;5003829;28;20141;-72
2021/10/15 10:14:38;;;;;;;11.93;5.35;;;;;;;8.05;66.98;93816.72;5006745;28;20403;-71
2021/10/15 10:17:05;;;;;;;13.60;5.68;;;;;;;8.27;66.59;93830.00;5015246;28;20039;-71
2021/10/15 10:19:37;;;;;;;9.45;5.75;;;;;;;8.38;66.26;93826.06;5011472;28;20017;-73
2021/10/15 10:22:04;;;;;;;8.85;5.22;;;;;;;8.31;65.65;93801.84;5012409;28;20052;-71
2021/10/15 10:24:33;;;;;;;8.75;4.93;;;;;;;8.52;65.17;93820.72;5001765;28;20152;-71
2021/10/15 10:26:59;;;;;;;8.07;5.35;;;;;;;8.51;65.36;93814.63;5007440;28;20041;-71
2021/10/15 10:29:26;;;;;;;8.50;5.03;;;;;;;8.58;64.97;93816.88;5013218;28;20091;-73
2021/10/15 10:31:53;;;;;;;9.10;4.90;;;;;;;8.43;65.71;93807.41;5010724;28;20033;-72
2021/10/15 10:34:36;;;;;;;5.28;3.90;;;;;;;8.73;64.85;93803.28;5017338;28;20095;-71
2021/10/15 10:37:11;;;;;;;5.22;3.58;;;;;;;8.67;64.76;93803.69;5012725;28;20124;-72
2021/10/15 10:39:38;;;;;;;6.35;3.33;;;;;;;8.69;65.36;93807.63;5009199;28;20033;-72
2021/10/15 10:42:18;;;;;;;4.53;3.00;;;;;;;8.63;65.34;93800.84;5009247;28;20154;-72
2021/10/15 10:44:49;;;;;;;5.18;3.20;;;;;;;8.64;65.28;93804.28;5008603;28;20638;-73
2021/10/15 10:47:24;;;;;;;5.57;3.97;;;;;;;8.83;65.00;93799.59;5010792;28;20049;-73
2021/10/15 10:50:03;;;;;;;11.73;5.00;;;;;;;8.82;64.58;93801.47;5011033;28;20701;-71
2021/10/15 10:52:29;;;;;;;34.65;14.77;;;;;;;8.81;64.57;93797.25;4997496;28;20041;-72
2021/10/15 10:54:55;;;;;;;8.32;4.97;;;;;;;8.50;65.69;93797.19;5008435;28;20492;-71
2021/10/15 10:57:26;;;;;;;3.78;2.80;;;;;;;8.35;65.66;93772.88;5013964;28;20091;-72
2021/10/15 10:59:53;;;;;;;6.75;3.10;;;;;;;8.62;65.49;93783.38;5012929;28;20037;-71
2021/10/15 11:02:20;;;;;;;6.25;3.20;;;;;;;8.58;65.24;93788.50;5012369;28;20590;-72
2021/10/15 11:04:59;;;;;;;5.88;3.15;;;;;;;8.58;65.15;93780.56;5007968;28;20021;-73
2021/10/15 11:07:26;;;;;;;5.53;3.28;;;;;;;8.43;65.54;93764.22;5006645;28;20104;-72
2021/10/15 11:10:00;;;;;;;6.10;3.70;;;;;;;8.61;65.14;93779.16;5009638;28;20120;-72
2021/10/15 11:12:25;;;;;;;5.32;2.80;;;;;;;8.35;65.81;93778.97;5007399;28;20099;-72
2021/10/15 11:15:01;;;;;;;3.13;2.08;;;;;;;8.44;66.05;93769.22;5001817;28;20046;-72
2021/10/15 11:17:30;;;;;;;4.97;2.97;;;;;;;8.59;65.29;93768.88;5014287;28;20041;-74
2021/10/15 11:20:19;;;;;;;2.75;2.13;;;;;;;8.73;65.14;93768.03;5008012;28;20036;-72
2021/10/15 11:23:10;;;;;;;2.35;1.92;;;;;;;8.67;65.22;93758.63;5012897;28;20586;-73
2021/10/15 11:25:46;;;;;;;3.38;2.30;;;;;;;8.59;65.26;93750.31;5010015;28;20423;-73
2021/10/15 11:28:17;;;;;;;3.47;2.20;;;;;;;8.58;65.16;93746.09;5006513;28;20038;-73
2021/10/15 11:30:48;;;;;;;2.85;1.80;;;;;;;8.61;64.91;93751.88;5009022;28;20111;-72
2021/10/15 11:33:16;;;;;;;7.43;1.83;;;;;;;8.07;66.52;93749.09;5012999;28;20033;-72
2021/10/15 11:35:44;;;;;;;2.72;2.40;;;;;;;8.20;66.55;93726.31;5003374;28;20072;-73
2021/10/15 11:38:19;;;;;;;2.13;1.85;;;;;;;8.05;66.41;93694.88;5005397;28;20112;-72
2021/10/15 11:40:49;;;;;;;3.57;1.97;;;;;;;8.05;67.08;93743.34;5011433;28;20083;-72
2021/10/15 11:43:25;;;;;;;3.38;2.45;;;;;;;8.07;68.02;93719.22;5011426;28;20288;-72
2021/10/15 11:45:52;;;;;;;4.45;2.40;;;;;;;8.04;67.51;93693.31;5007970;28;20127;-72
2021/10/15 11:48:26;;;;;;;8.77;2.10;;;;;;;8.27;67.75;93702.03;5007528;28;20530;-72
2021/10/15 11:50:59;;;;;;;2.73;1.87;;;;;;;8.06;67.63;93688.50;5007825;28;20045;-74
2021/10/15 11:53:27;;;;;;;3.70;1.67;;;;;;;8.01;68.41;93685.97;4999519;28;20602;-73
2021/10/15 11:55:53;;;;;;;4.25;2.05;;;;;;;7.99;68.38;93680.19;5012966;28;20965;-72
2021/10/15 11:58:40;;;;;;;4.20;2.53;;;;;;;8.03;68.28;93668.69;5011126;28;20017;-72